Chatham, MA

5:11 PM EDT on March 25, 2017 (GMT -0400)
Chatham | | Change Station

Elev 43 ft 41.69 °N, 69.97 °W | Updated 2 seconds ago

Overcast
Overcast
39.2 °F
Feels Like 34 °F
N
7.2
Wind Variable Wind from NE
Gusts 9.8 mph

Today
High -- | Low -- °F
--% Chance of Precip.
Yesterday
High -- | Low -- °F
Precip. -- in
Pressure 30.29 in
Visibility 10.0 miles
Clouds Overcast 6000 ft
Windchill 34 °F
Dew Point 14 °F
Humidity 36%
Rainfall 0.00 in
Snow Depth Not available.
6:34 AM 6:57 PM
Waning Crescent, 6% visible
METAR KCQX 252052Z AUTO 36005KT 10SM OVC060 04/01 A3028 RMK AO2 RAE1959 SLP256 P0000 60000 T00440006 50018
Pressure 30.29 in
Visibility 10.0 miles
Clouds Overcast 6000 ft
Windchill 34 °F
Dew Point 14 °F
Humidity 36%
Rainfall 0.00 in
Snow Depth Not available.
6:34 AM 6:57 PM
Waning Crescent, 6% visible
METAR KCQX 252052Z AUTO 36005KT 10SM OVC060 04/01 A3028 RMK AO2 RAE1959 SLP256 P0000 60000 T00440006 50018

Get Severe Weather Alerts

Thanks for signing up!

Be on the lookout for a verification email in your inbox.

You'll start receiving the daily forecast at 8 AM.

×

10-Day Weather Forecast

Almanac

Astronomy

Mar. 25, 2017 Rise Set
Actual Time
Civil Twilight
Nautical Twilight
Astronomical Twilight
Moon
Length of Visible Light
Length of Day
Tomorrow will be .
, % of the Moon is Illuminated

Today's Extremes

State Highs State Lows

Community

WunderPhotos

Upload Photos

1,962,540 photos uploaded!

WunderBlog® & News

Nearby

Air Quality

  Air Quality AQ Index Pollutant
Not available.

Snow Depth

Station Depth Elevation

Earthquake Activity

City Distance Mag. Time & Date
Minimum magnitude displayed is 2.5.

Earthquake Activity

City Distance Mag. Time & Date
Minimum magnitude displayed is 2.5.

Coastal Water Temperatures

Place Temperature

Stations

Nearby Weather Stations

Station Location Temp. Windchill Dew Point Humidity Wind Precip. Elev Updated Type
                   

Watches & Warnings

There are currently no watches in effect.